Time;durP1;ratioP1;P1;durP2;ratioP2;P2;SDS_P1;SDS_P2;PMS_P1;PMS_P2;Temp;Humidity;BMP_temperature;BMP_pressure;BME280_temperature;BME280_humidity;BME280_pressure;Samples;Min_cycle;Max_cycle;Signal;HPM_P1;HPM_P2
2021/12/12 00:05:07;;;;;;;0.82;0.45;;;20.00;26.20;20.40;94526.00;;;;10275884;28;46538;-60
2021/12/12 00:10:17;;;;;;;0.77;0.40;;;20.00;26.30;20.40;94518.00;;;;10275521;28;45582;-62
2021/12/12 00:15:20;;;;;;;0.55;0.30;;;20.00;26.20;20.40;94520.00;;;;10310989;28;45529;-66
2021/12/12 00:20:25;;;;;;;1.10;0.50;;;19.90;26.20;20.30;94519.00;;;;10314957;28;45189;-61
2021/12/12 00:25:40;;;;;;;0.98;0.40;;;19.90;26.20;20.30;94523.00;;;;10316024;28;45129;-61
2021/12/12 00:30:40;;;;;;;0.57;0.30;;;19.90;26.10;20.30;94531.00;;;;10281092;28;45400;-63
2021/12/12 00:35:41;;;;;;;0.30;0.30;;;19.90;26.10;20.30;94546.00;;;;10274358;28;45386;-62
2021/12/12 00:40:48;;;;;;;0.73;0.30;;;19.90;26.10;20.30;94540.00;;;;10274440;28;45367;-61
2021/12/12 00:45:53;;;;;;;0.98;0.35;;;19.90;26.10;20.30;94548.00;;;;10274321;28;46283;-61
2021/12/12 00:50:54;;;;;;;0.35;0.30;;;19.90;26.10;20.30;94557.00;;;;10275517;28;45240;-63
2021/12/12 00:55:56;;;;;;;0.43;0.30;;;19.90;26.10;20.30;94561.00;;;;10274137;28;45483;-60
2021/12/12 01:01:21;;;;;;;0.80;0.32;;;19.90;26.10;20.30;94572.00;;;;10257511;28;47067;-62
2021/12/12 01:06:24;;;;;;;0.98;0.32;;;19.90;26.10;20.30;94579.00;;;;10275042;28;46414;-60
2021/12/12 01:11:43;;;;;;;0.35;0.20;;;19.90;26.10;20.30;94586.00;;;;10277184;28;45209;-62
2021/12/12 01:16:53;;;;;;;0.47;0.20;;;19.90;26.60;20.30;94580.00;;;;10313677;28;45496;-61
2021/12/12 01:21:59;;;;;;;0.52;0.30;;;19.90;26.10;20.30;94585.00;;;;10313291;28;45384;-61
2021/12/12 01:27:04;;;;;;;0.32;0.25;;;19.80;26.00;20.30;94585.00;;;;10314378;28;46712;-61
2021/12/12 01:32:16;;;;;;;0.30;0.20;;;19.90;26.10;20.30;94588.00;;;;10313053;28;47436;-61
2021/12/12 01:42:42;;;;;;;0.85;0.20;;;19.80;26.00;20.30;94581.00;;;;10314279;28;45290;-63
2021/12/12 01:47:53;;;;;;;0.53;0.33;;;19.80;26.00;20.30;94602.00;;;;10312135;28;46542;-61
2021/12/12 01:52:55;;;;;;;0.30;0.20;;;19.80;25.90;20.30;94621.00;;;;10314232;28;45473;-61
2021/12/12 01:58:00;;;;;;;0.55;0.20;;;19.80;26.00;20.30;94627.00;;;;10327772;28;47154;-62
2021/12/12 02:03:05;;;;;;;0.80;0.30;;;19.80;25.90;20.30;94625.00;;;;10307093;28;46664;-61
2021/12/12 02:08:15;;;;;;;0.40;0.25;;;19.80;26.00;20.20;94611.00;;;;10311852;28;45423;-61
2021/12/12 02:13:19;;;;;;;0.85;0.30;;;19.80;25.90;20.20;94604.00;;;;10293557;28;45224;-61
2021/12/12 02:18:30;;;;;;;0.52;0.22;;;19.80;25.90;20.20;94635.00;;;;10271395;28;45387;-63
2021/12/12 02:39:17;;;;;;;0.57;0.20;;;19.80;25.80;20.20;94622.00;;;;10311622;28;45158;-63
2021/12/12 02:44:23;;;;;;;0.50;0.30;;;19.80;25.80;20.20;94614.00;;;;10327291;28;47229;-63
2021/12/12 02:49:39;;;;;;;0.40;0.30;;;19.80;25.80;20.20;94624.00;;;;10294111;28;48234;-61
2021/12/12 02:54:41;;;;;;;0.90;0.30;;;19.70;25.80;20.20;94612.00;;;;10310759;28;45130;-61
2021/12/12 02:59:48;;;;;;;0.73;0.20;;;19.70;25.80;20.10;94637.00;;;;10309294;28;47768;-63
2021/12/12 03:04:51;;;;;;;0.88;0.30;;;19.70;25.80;20.10;94636.00;;;;10310246;28;47312;-62
2021/12/12 03:09:56;;;;;;;0.40;0.17;;;19.70;25.70;20.20;94641.00;;;;10311486;28;45389;-61
2021/12/12 03:15:13;;;;;;;0.30;0.20;;;19.70;25.80;20.10;94648.00;;;;10278124;28;46065;-62
2021/12/12 03:20:26;;;;;;;0.75;0.30;;;19.70;25.70;20.10;94641.00;;;;10268766;28;46500;-61
2021/12/12 03:25:30;;;;;;;1.13;0.40;;;19.70;25.80;20.10;94630.00;;;;10269365;28;46300;-62
2021/12/12 03:30:31;;;;;;;0.50;0.40;;;19.70;25.70;20.10;94640.00;;;;10284428;28;47147;-61
2021/12/12 03:35:31;;;;;;;0.80;0.40;;;19.70;25.80;20.20;94635.00;;;;10297193;28;47530;-61
2021/12/12 03:40:38;;;;;;;0.60;0.30;;;19.70;25.70;20.20;94648.00;;;;10299558;28;46766;-63
2021/12/12 03:45:43;;;;;;;1.27;0.20;;;19.70;25.70;20.20;94635.00;;;;10316389;28;48098;-61
2021/12/12 03:50:47;;;;;;;1.92;0.30;;;19.80;25.70;20.20;94641.00;;;;10317481;28;45403;-61
2021/12/12 03:55:50;;;;;;;0.88;0.30;;;19.70;25.70;20.20;94638.00;;;;10316349;28;45179;-62
2021/12/12 04:01:43;;;;;;;0.30;0.20;;;19.70;25.70;20.20;94627.00;;;;10299628;28;47211;-62
2021/12/12 04:06:46;;;;;;;1.02;0.20;;;19.70;25.80;20.20;94621.00;;;;10307568;28;45315;-60
2021/12/12 04:11:55;;;;;;;0.77;0.30;;;19.70;25.70;20.20;94629.00;;;;10291653;28;47494;-61
2021/12/12 04:17:01;;;;;;;1.92;0.63;;;19.70;25.70;20.20;94635.00;;;;10274767;28;45235;-63
2021/12/12 04:22:03;;;;;;;0.35;0.10;;;19.70;25.70;20.20;94631.00;;;;10274494;28;45096;-61
2021/12/12 04:27:06;;;;;;;0.40;0.20;;;19.80;25.80;20.20;94614.00;;;;10275941;28;45313;-62
2021/12/12 04:32:13;;;;;;;0.70;0.20;;;19.70;25.70;20.20;94624.00;;;;10276119;28;46140;-60
2021/12/12 04:37:15;;;;;;;0.65;0.30;;;19.70;25.70;20.20;94638.00;;;;10274868;28;45331;-61
2021/12/12 04:42:28;;;;;;;0.17;0.17;;;19.70;25.70;20.20;94633.00;;;;10257888;28;47158;-63
2021/12/12 04:53:36;;;;;;;0.70;0.25;;;19.70;25.70;20.20;94641.00;;;;10274637;28;45764;-61
2021/12/12 04:59:00;;;;;;;1.17;0.15;;;19.70;25.70;20.10;94661.00;;;;10274404;28;45236;-63
2021/12/12 05:04:10;;;;;;;1.25;0.15;;;19.70;25.70;20.10;94647.00;;;;10274912;28;45192;-63
2021/12/12 05:09:21;;;;;;;0.20;0.15;;;19.70;25.60;20.20;94656.00;;;;10272908;28;46700;-62
2021/12/12 05:14:29;;;;;;;0.75;0.10;;;19.70;26.20;20.20;94674.00;;;;10299864;28;45944;-63
2021/12/12 05:19:31;;;;;;;0.70;0.20;;;19.80;25.70;20.30;94642.00;;;;10313084;28;46256;-63
2021/12/12 05:24:33;;;;;;;0.30;0.20;;;19.80;25.60;20.30;94675.00;;;;10313835;28;45567;-61
2021/12/12 05:29:44;;;;;;;0.57;0.20;;;19.80;25.50;20.30;94658.00;;;;10287881;28;46544;-61
2021/12/12 05:34:49;;;;;;;1.33;0.20;;;19.90;25.60;20.30;94681.00;;;;10272485;28;45345;-61
2021/12/12 05:39:51;;;;;;;0.20;0.13;;;19.90;25.50;20.40;94680.00;;;;10272210;28;45482;-63
2021/12/12 05:44:54;;;;;;;0.43;0.10;;;19.90;25.40;20.40;94674.00;;;;10272528;28;45509;-60
2021/12/12 05:49:56;;;;;;;0.50;0.20;;;19.90;25.40;20.40;94683.00;;;;10271955;28;45484;-61
2021/12/12 05:54:57;;;;;;;0.55;0.10;;;19.90;25.40;20.40;94689.00;;;;10271599;28;46315;-61
2021/12/12 05:59:59;;;;;;;0.50;0.20;;;20.00;25.40;20.40;94691.00;;;;10270389;28;45202;-62
2021/12/12 06:04:59;;;;;;;0.43;0.10;;;20.00;25.40;20.40;94707.00;;;;10271702;28;45486;-61
2021/12/12 06:10:07;;;;;;;0.25;0.20;;;20.00;25.30;20.40;94702.00;;;;10271026;28;45103;-61
2021/12/12 06:15:12;;;;;;;0.60;0.20;;;20.00;25.30;20.50;94700.00;;;;10306244;28;46440;-61
2021/12/12 06:20:14;;;;;;;0.32;0.20;;;20.00;25.20;20.40;94682.00;;;;10310519;28;45607;-61
2021/12/12 06:25:16;;;;;;;0.50;0.20;;;20.00;25.20;20.40;94694.00;;;;10311499;28;45676;-63
2021/12/12 06:30:22;;;;;;;0.15;0.10;;;20.00;25.10;20.40;94684.00;;;;10280452;28;46529;-62
2021/12/12 06:35:23;;;;;;;0.20;0.10;;;20.00;25.10;20.40;94715.00;;;;10272543;28;46733;-61
2021/12/12 06:40:24;;;;;;;0.32;0.10;;;20.00;25.00;20.50;94709.00;;;;10270856;28;45213;-61
2021/12/12 06:45:25;;;;;;;0.50;0.20;;;20.00;25.00;20.40;94703.00;;;;10271204;28;45245;-61
2021/12/12 06:50:27;;;;;;;0.30;0.20;;;20.00;24.90;20.40;94742.00;;;;10270950;28;47028;-61
2021/12/12 06:55:29;;;;;;;0.45;0.28;;;20.00;24.90;20.50;94754.00;;;;10270500;28;45513;-61
2021/12/12 07:00:30;;;;;;;0.13;0.10;;;20.00;24.90;20.50;94756.00;;;;10270780;28;45284;-61
2021/12/12 07:05:32;;;;;;;0.17;0.10;;;20.00;24.80;20.50;94760.00;;;;10270312;28;46170;-61
2021/12/12 07:10:34;;;;;;;0.20;0.20;;;20.10;24.80;20.50;94759.00;;;;10275517;28;45178;-61
2021/12/12 07:15:51;;;;;;;0.20;0.20;;;20.10;24.90;20.50;94752.00;;;;10315882;28;45350;-61
2021/12/12 07:20:57;;;;;;;0.45;0.30;;;20.10;24.80;20.60;94750.00;;;;10349316;22;47071;-63
2021/12/12 07:26:04;;;;;;;0.32;0.30;;;20.10;24.70;20.60;94763.00;;;;10295932;28;45225;-63
2021/12/12 07:31:10;;;;;;;0.55;0.30;;;20.10;24.70;20.60;94755.00;;;;10292924;28;45258;-63
2021/12/12 07:36:12;;;;;;;0.37;0.20;;;20.20;24.70;20.60;94758.00;;;;10276766;28;45419;-63
2021/12/12 07:41:17;;;;;;;0.20;0.20;;;20.20;24.70;20.70;94761.00;;;;10275685;28;45256;-61
2021/12/12 07:46:19;;;;;;;2.20;0.50;;;20.20;24.80;20.80;94759.00;;;;10275237;28;48149;-60
2021/12/12 07:51:22;;;;;;;0.65;0.30;;;20.20;24.70;20.80;94762.00;;;;10275674;28;45419;-60
2021/12/12 07:56:26;;;;;;;0.30;0.30;;;20.30;24.80;20.80;94772.00;;;;10299505;28;46852;-61
2021/12/12 08:01:28;;;;;;;0.60;0.40;;;20.30;24.70;20.80;94761.00;;;;10315194;28;45224;-61
2021/12/12 08:06:30;;;;;;;0.70;0.50;;;20.40;24.70;20.80;94789.00;;;;10300975;28;45183;-60
2021/12/12 08:11:33;;;;;;;0.65;0.45;;;20.40;24.70;20.80;94791.00;;;;10256498;28;46450;-60
2021/12/12 08:16:34;;;;;;;0.75;0.50;;;20.40;24.70;20.90;94807.00;;;;10253024;28;45948;-61
2021/12/12 08:21:36;;;;;;;0.60;0.40;;;20.40;24.60;20.90;94806.00;;;;10251080;28;45305;-60
2021/12/12 08:26:41;;;;;;;0.50;0.50;;;20.40;24.60;20.90;94813.00;;;;10233591;28;47130;-60
2021/12/12 08:31:42;;;;;;;0.60;0.50;;;20.40;24.60;20.90;94809.00;;;;10302351;28;47074;-60
2021/12/12 08:36:50;;;;;;;0.50;0.40;;;20.40;24.60;20.90;94822.00;;;;10314363;28;47105;-61
2021/12/12 08:41:51;;;;;;;1.27;0.50;;;20.40;24.60;20.90;94817.00;;;;10314077;28;47156;-61
2021/12/12 08:46:55;;;;;;;0.40;0.40;;;20.40;24.50;20.90;94823.00;;;;10313784;28;46182;-61
2021/12/12 08:52:31;;;;;;;0.50;0.50;;;20.40;24.60;20.90;94813.00;;;;10314169;28;45242;-60
2021/12/12 08:57:34;;;;;;;0.45;0.40;;;20.40;24.60;20.80;94826.00;;;;10313918;28;47413;-60
2021/12/12 09:02:36;;;;;;;0.65;0.38;;;20.40;24.90;20.80;94814.00;;;;10313820;28;45471;-61
2021/12/12 09:07:44;;;;;;;0.85;0.50;;;20.40;25.10;20.80;94809.00;;;;10310114;28;45507;-66
2021/12/12 09:13:02;;;;;;;1.48;0.73;;;20.40;25.20;20.70;94829.00;;;;10279386;28;46801;-60
2021/12/12 09:18:10;;;;;;;1.75;1.25;;;20.40;24.90;20.50;94828.00;;;;10292209;28;46761;-60
2021/12/12 09:23:31;;;;;;;2.78;0.88;;;20.30;24.70;20.60;94823.00;;;;10312700;28;45434;-61
2021/12/12 09:28:56;;;;;;;3.00;0.70;;;20.10;25.00;20.60;94832.00;;;;10312482;28;45465;-60
2021/12/12 09:34:12;;;;;;;0.82;0.80;;;20.10;25.20;20.60;94829.00;;;;10312533;28;45376;-60
2021/12/12 09:39:26;;;;;;;1.87;0.80;;;20.20;25.30;20.60;94832.00;;;;10311968;28;47382;-61
2021/12/12 09:44:42;;;;;;;4.50;0.88;;;20.20;25.40;20.70;94840.00;;;;10239173;28;47445;-60
2021/12/12 09:56:08;;;;;;;1.27;0.70;;;20.20;25.50;20.80;94827.00;;;;10227362;28;45693;-61
2021/12/12 10:01:38;;;;;;;2.83;1.25;;;20.30;25.60;20.60;94826.00;;;;10246400;28;47166;-60
2021/12/12 10:06:54;;;;;;;1.80;1.30;;;20.20;25.40;20.70;94815.00;;;;10270501;28;46351;-62
2021/12/12 10:12:07;;;;;;;4.80;1.70;;;20.30;25.60;20.80;94800.00;;;;10270322;28;47034;-60
2021/12/12 10:17:37;;;;;;;6.38;1.85;;;20.40;25.90;20.90;94809.00;;;;10283402;28;46993;-61
2021/12/12 10:23:07;;;;;;;4.63;1.88;;;20.40;26.30;20.90;94805.00;;;;10309968;28;45405;-63
2021/12/12 10:28:27;;;;;;;4.95;1.90;;;20.40;26.50;20.90;94815.00;;;;10304943;28;46464;-62
2021/12/12 10:33:41;;;;;;;5.22;1.95;;;20.50;26.50;20.90;94816.00;;;;10270205;28;46316;-62
2021/12/12 10:38:54;;;;;;;5.38;1.83;;;20.40;27.20;20.90;94810.00;;;;10271988;28;45572;-63
2021/12/12 10:44:04;;;;;;;3.85;1.70;;;20.40;26.70;20.90;94795.00;;;;10274124;28;47696;-63
2021/12/12 10:49:21;;;;;;;2.80;1.38;;;20.40;26.60;20.70;94793.00;;;;10277419;28;45430;-63
2021/12/12 10:54:36;;;;;;;2.30;1.30;;;20.30;26.20;20.80;94783.00;;;;10277514;28;45521;-62
2021/12/12 11:00:22;;;;;;;4.07;1.50;;;20.40;26.40;20.90;94802.00;;;;10276173;28;47215;-63
2021/12/12 11:05:48;;;;;;;5.25;1.45;;;20.40;26.40;20.90;94788.00;;;;10276381;28;46273;-61
2021/12/12 11:10:50;;;;;;;3.60;1.20;;;20.40;26.50;20.90;94773.00;;;;10276852;28;45358;-63
2021/12/12 11:16:03;;;;;;;3.45;1.48;;;20.40;26.60;21.00;94783.00;;;;10312131;28;45398;-62
2021/12/12 11:21:41;;;;;;;2.60;1.20;;;20.50;26.80;21.00;94795.00;;;;10275090;28;47966;-60
2021/12/12 11:27:08;;;;;;;3.45;1.30;;;20.50;27.60;21.10;94784.00;;;;10275652;28;45473;-60
2021/12/12 11:32:16;;;;;;;;;;;20.50;27.00;21.10;94768.00;;;;10297104;28;46939;-60
2021/12/12 11:37:36;;;;;;;2.70;1.40;;;20.60;26.90;21.10;94773.00;;;;10299307;28;47832;-60
2021/12/12 11:42:49;;;;;;;2.28;1.48;;;20.70;26.80;21.20;94782.00;;;;10316564;28;45531;-61
2021/12/12 11:48:08;;;;;;;2.42;1.50;;;20.60;26.80;21.10;94787.00;;;;10316664;28;45180;-61
2021/12/12 11:53:42;;;;;;;4.28;1.42;;;20.60;26.70;21.00;94787.00;;;;10315889;28;45549;-61
2021/12/12 11:59:04;;;;;;;2.10;1.38;;;20.50;26.90;21.00;94788.00;;;;10315418;28;46148;-61
2021/12/12 12:04:23;;;;;;;3.25;1.25;;;20.50;27.50;21.10;94790.00;;;;10316504;28;46444;-60
2021/12/12 12:09:46;;;;;;;1.33;1.00;;;20.60;27.40;21.10;94772.00;;;;10304965;28;46249;-60
2021/12/12 12:15:28;;;;;;;2.03;1.20;;;20.60;27.30;21.20;94773.00;;;;10255662;28;46966;-60
2021/12/12 12:20:59;;;;;;;1.65;1.17;;;20.60;27.20;21.20;94765.00;;;;10301676;28;45273;-59
2021/12/12 12:31:33;;;;;;;2.70;1.20;;;20.60;27.10;21.10;94771.00;;;;10282415;28;45299;-59
2021/12/12 12:36:58;;;;;;;2.22;1.20;;;20.60;27.10;21.10;94771.00;;;;10273673;28;47727;-60
2021/12/12 12:42:47;;;;;;;3.42;1.52;;;20.60;27.10;21.10;94759.00;;;;10273454;28;46961;-61
2021/12/12 12:48:12;;;;;;;1.70;1.25;;;20.60;27.10;21.10;94767.00;;;;10274902;28;46318;-60
2021/12/12 12:54:00;;;;;;;1.50;1.15;;;20.60;27.10;21.00;94750.00;;;;10272946;28;47069;-60
2021/12/12 12:59:48;;;;;;;2.13;1.50;;;20.50;27.00;21.10;94754.00;;;;10248499;28;45414;-60
2021/12/12 13:05:07;;;;;;;2.95;1.70;;;20.50;27.20;21.10;94744.00;;;;10272164;28;45368;-61
2021/12/12 13:10:14;;;;;;;2.55;1.65;;;20.50;27.60;21.00;94747.00;;;;10268473;28;45262;-62
2021/12/12 13:15:48;;;;;;;2.65;1.73;;;20.50;27.80;21.00;94733.00;;;;10303126;28;45611;-61
2021/12/12 13:21:31;;;;;;;4.90;3.20;;;20.50;28.00;20.80;94758.00;;;;10292485;22;46235;-61
2021/12/12 13:27:01;;;;;;;5.13;3.38;;;20.40;27.90;20.80;94757.00;;;;10314872;28;45335;-60
2021/12/12 13:32:17;;;;;;;5.95;3.50;;;20.40;27.90;20.90;94740.00;;;;10328726;28;45123;-61
2021/12/12 13:37:31;;;;;;;7.50;3.30;;;20.40;27.90;20.90;94734.00;;;;10295961;28;47275;-60
2021/12/12 13:43:09;;;;;;;5.85;3.13;;;20.40;28.00;21.00;94737.00;;;;10313235;28;46452;-60
2021/12/12 13:48:32;;;;;;;5.50;2.90;;;20.50;28.30;21.00;94751.00;;;;10314178;28;45320;-62
2021/12/12 13:53:42;;;;;;;4.80;2.30;;;20.50;28.30;21.00;94745.00;;;;10309629;28;45414;-58
2021/12/12 13:59:20;;;;;;;3.10;2.38;;;20.50;28.30;21.00;94756.00;;;;10272430;28;45653;-60
2021/12/12 14:04:52;;;;;;;4.72;2.83;;;20.50;28.30;21.00;94762.00;;;;10287885;28;46069;-61
2021/12/12 14:09:55;;;;;;;4.90;2.75;;;20.50;28.40;21.00;94765.00;;;;10270808;28;45974;-60
2021/12/12 14:15:07;;;;;;;4.43;2.90;;;20.50;28.40;21.10;94750.00;;;;10247235;28;45552;-60
2021/12/12 14:20:14;;;;;;;3.92;2.70;;;20.50;28.50;21.00;94773.00;;;;10229480;28;45177;-59
2021/12/12 14:25:15;;;;;;;;;;;20.50;28.50;21.00;94751.00;;;;10232007;28;46397;-58
2021/12/12 14:30:20;;;;;;;5.35;3.10;;;20.50;28.60;21.10;94754.00;;;;10230532;28;47572;-60
2021/12/12 14:35:48;;;;;;;4.10;2.83;;;20.60;28.60;21.10;94752.00;;;;10230207;28;45250;-60
2021/12/12 14:40:58;;;;;;;5.00;2.60;;;20.60;28.70;21.10;94772.00;;;;10229896;28;46513;-61
2021/12/12 14:46:13;;;;;;;3.70;2.78;;;20.60;28.80;21.10;94782.00;;;;10230215;28;45549;-60
2021/12/12 14:51:21;;;;;;;4.78;2.45;;;20.60;28.80;21.10;94781.00;;;;10230838;28;45316;-59
2021/12/12 14:56:31;;;;;;;3.38;2.33;;;20.60;28.80;21.10;94780.00;;;;10230660;28;45403;-59
2021/12/12 15:01:42;;;;;;;4.20;2.53;;;20.50;28.80;21.10;94771.00;;;;10229159;28;48158;-60
2021/12/12 15:06:58;;;;;;;3.83;2.50;;;20.60;28.80;21.10;94778.00;;;;10229797;28;46376;-61
2021/12/12 15:12:07;;;;;;;;;;;20.50;28.80;21.10;94785.00;;;;10229966;28;48152;-61
2021/12/12 15:17:16;;;;;;;4.60;2.25;;;20.60;28.90;21.10;94792.00;;;;10244992;28;45977;-60
2021/12/12 15:22:22;;;;;;;2.95;2.20;;;20.60;28.80;21.10;94792.00;;;;10229614;28;45969;-62
2021/12/12 15:27:37;;;;;;;2.67;2.08;;;20.60;28.80;21.10;94777.00;;;;10229883;28;45833;-62
2021/12/12 15:32:45;;;;;;;3.20;2.30;;;20.50;28.70;21.10;94772.00;;;;10287440;28;46294;-60
2021/12/12 15:37:48;;;;;;;4.97;3.17;;;20.50;28.70;21.10;94787.00;;;;10271704;28;46334;-60
2021/12/12 15:42:58;;;;;;;7.35;4.25;;;20.50;28.90;21.10;94787.00;;;;10270235;28;46476;-62
2021/12/12 15:48:01;;;;;;;6.50;4.05;;;20.50;29.00;21.10;94795.00;;;;10273783;28;45490;-59
2021/12/12 15:53:10;;;;;;;7.90;4.65;;;20.60;28.90;21.10;94786.00;;;;10275820;28;45678;-61
2021/12/12 15:58:26;;;;;;;6.97;4.28;;;20.60;28.80;21.00;94793.00;;;;10288737;28;45234;-61
2021/12/12 16:03:28;;;;;;;6.73;4.13;;;20.50;28.90;21.10;94792.00;;;;10331930;28;46198;-60
2021/12/12 16:08:41;;;;;;;6.80;4.50;;;20.60;28.80;21.10;94784.00;;;;10324164;28;45416;-62
2021/12/12 16:13:45;;;;;;;5.93;3.42;;;20.60;29.00;20.90;94796.00;;;;10293749;28;47032;-60
2021/12/12 16:19:06;;;;;;;5.57;3.67;;;20.50;29.00;20.90;94791.00;;;;10291204;28;45442;-62
2021/12/12 16:24:07;;;;;;;4.95;3.33;;;20.50;29.00;20.90;94807.00;;;;10288063;28;45262;-62
2021/12/12 16:29:14;;;;;;;6.15;3.28;;;20.40;28.90;20.90;94804.00;;;;10271294;28;48215;-61
2021/12/12 16:34:21;;;;;;;6.60;4.07;;;20.50;28.80;20.90;94805.00;;;;10258472;28;46603;-61
2021/12/12 16:39:28;;;;;;;5.53;3.78;;;20.50;28.80;20.90;94818.00;;;;10271967;28;47944;-60
2021/12/12 16:44:35;;;;;;;5.03;3.10;;;20.50;28.70;20.90;94820.00;;;;10274066;28;45551;-61
2021/12/12 16:49:44;;;;;;;4.50;3.20;;;20.50;28.70;20.90;94810.00;;;;10274804;28;45213;-60
2021/12/12 16:54:56;;;;;;;4.53;3.30;;;20.50;28.80;21.00;94796.00;;;;10274437;28;46288;-60
2021/12/12 17:00:17;;;;;;;6.28;3.75;;;20.50;28.80;21.00;94806.00;;;;10275483;28;45563;-59
2021/12/12 17:05:34;;;;;;;6.97;4.18;;;20.50;28.80;21.00;94803.00;;;;10275194;28;45230;-65
2021/12/12 17:10:38;;;;;;;10.20;6.00;;;20.50;28.80;21.00;94794.00;;;;10273151;28;47425;-61
2021/12/12 17:15:40;;;;;;;10.82;6.90;;;20.60;29.00;21.10;94812.00;;;;10283990;28;45693;-61
2021/12/12 17:21:12;;;;;;;11.98;7.32;;;20.60;28.80;21.00;94798.00;;;;10270468;28;47022;-59
2021/12/12 17:26:24;;;;;;;10.15;6.30;;;20.60;28.70;21.00;94815.00;;;;10273856;28;45433;-64
2021/12/12 17:31:32;;;;;;;9.60;5.88;;;20.60;28.60;21.00;94812.00;;;;10289216;28;46250;-59
2021/12/12 17:36:39;;;;;;;7.95;5.60;;;20.60;28.60;21.00;94822.00;;;;10272041;28;47113;-60
2021/12/12 17:41:41;;;;;;;9.85;5.90;;;20.60;28.40;21.00;94815.00;;;;10277546;28;45771;-66
2021/12/12 17:47:03;;;;;;;8.73;5.55;;;20.60;28.40;21.00;94827.00;;;;10251785;28;45446;-63
2021/12/12 17:52:30;;;;;;;7.45;5.15;;;20.60;28.60;21.10;94817.00;;;;10263434;28;45544;-63
2021/12/12 17:57:59;;;;;;;6.82;5.18;;;20.60;28.40;21.10;94785.00;;;;10285295;28;45566;-62
2021/12/12 18:03:03;;;;;;;7.97;5.60;;;20.60;28.30;21.00;94805.00;;;;10270690;28;46150;-62
2021/12/12 18:08:33;;;;;;;7.53;5.20;;;20.60;28.30;21.10;94797.00;;;;10270581;28;45325;-63
2021/12/12 18:13:39;;;;;;;6.80;4.80;;;20.60;28.20;21.10;94797.00;;;;10287012;28;46509;-62
2021/12/12 18:18:40;;;;;;;6.97;4.47;;;20.60;28.10;21.10;94803.00;;;;10269822;28;47068;-63
2021/12/12 18:23:47;;;;;;;6.68;4.95;;;20.60;28.10;21.10;94773.00;;;;10270424;28;46214;-62
2021/12/12 18:28:59;;;;;;;6.20;4.32;;;20.60;28.00;21.10;94804.00;;;;10268973;28;46395;-62
2021/12/12 18:34:07;;;;;;;5.88;4.10;;;20.60;28.10;21.10;94804.00;;;;10286058;28;45680;-63
2021/12/12 18:39:14;;;;;;;5.28;3.72;;;20.70;28.10;21.10;94795.00;;;;10269226;28;48465;-63
2021/12/12 18:44:22;;;;;;;6.50;4.25;;;20.60;27.90;21.10;94815.00;;;;10269651;28;46901;-63
2021/12/12 18:49:24;;;;;;;5.75;3.67;;;20.60;28.00;21.10;94819.00;;;;10285328;28;45544;-62
2021/12/12 18:54:33;;;;;;;5.05;3.50;;;20.60;27.80;21.10;94829.00;;;;10285324;28;45503;-63
2021/12/12 18:59:36;;;;;;;5.65;3.10;;;20.60;27.80;21.10;94842.00;;;;10269546;28;46372;-62
2021/12/12 19:04:51;;;;;;;3.80;2.72;;;20.60;27.70;21.10;94826.00;;;;10287157;28;45190;-61
2021/12/12 19:09:59;;;;;;;4.75;2.95;;;20.60;27.70;21.10;94842.00;;;;10291076;28;45408;-65
2021/12/12 19:15:06;;;;;;;3.22;2.50;;;20.60;27.60;21.10;94840.00;;;;10290625;28;45351;-64
2021/12/12 19:20:13;;;;;;;3.17;2.25;;;20.70;28.10;21.10;94829.00;;;;10295836;28;46960;-60
2021/12/12 19:25:23;;;;;;;3.08;2.00;;;20.60;27.70;21.10;94845.00;;;;10318693;28;45222;-60
2021/12/12 19:30:42;;;;;;;2.83;1.67;;;20.70;27.70;21.10;94842.00;;;;10299321;28;45238;-60
2021/12/12 19:35:45;;;;;;;2.28;1.50;;;20.60;27.60;21.00;94836.00;;;;10277681;28;45192;-60
2021/12/12 19:40:58;;;;;;;2.78;1.40;;;20.60;27.60;21.00;94829.00;;;;10277308;28;45615;-60
2021/12/12 19:46:05;;;;;;;1.90;1.55;;;20.50;27.40;21.00;94818.00;;;;10277065;28;45238;-60
2021/12/12 19:51:14;;;;;;;1.63;1.45;;;20.50;27.40;21.00;94818.00;;;;10276558;28;45420;-61
2021/12/12 19:56:16;;;;;;;2.55;1.73;;;20.50;27.30;20.90;94816.00;;;;10276349;28;45416;-59
2021/12/12 20:01:25;;;;;;;2.83;1.60;;;20.50;27.80;20.90;94815.00;;;;10291700;28;46079;-59
2021/12/12 20:06:35;;;;;;;1.73;1.40;;;20.50;27.30;20.90;94814.00;;;;10291129;28;45333;-61
2021/12/12 20:11:49;;;;;;;1.63;1.33;;;20.40;27.30;20.90;94801.00;;;;10291349;28;45241;-60
2021/12/12 20:16:56;;;;;;;1.92;1.33;;;20.40;27.20;20.90;94803.00;;;;10290515;28;45960;-60
2021/12/12 20:22:19;;;;;;;1.85;1.40;;;20.40;27.30;20.90;94802.00;;;;10290687;28;45454;-60
2021/12/12 20:27:34;;;;;;;2.40;1.27;;;20.40;27.20;20.90;94794.00;;;;10275070;28;46257;-60
2021/12/12 20:32:45;;;;;;;1.27;0.90;;;20.40;27.20;20.90;94799.00;;;;10290729;28;46248;-60
2021/12/12 20:37:57;;;;;;;1.50;1.05;;;20.40;27.10;20.90;94812.00;;;;10274276;28;45198;-61
2021/12/12 20:43:00;;;;;;;2.00;1.20;;;20.40;27.10;20.90;94814.00;;;;10275396;28;46338;-59
2021/12/12 20:48:20;;;;;;;3.10;1.30;;;20.40;27.10;20.90;94814.00;;;;10274160;28;45233;-60
2021/12/12 20:53:35;;;;;;;2.22;1.42;;;20.40;27.10;20.90;94821.00;;;;10273986;28;45269;-60
2021/12/12 20:58:48;;;;;;;1.85;1.00;;;20.40;27.10;20.90;94820.00;;;;10274781;28;45409;-60
2021/12/12 21:03:59;;;;;;;1.92;1.20;;;20.40;27.00;20.90;94820.00;;;;10274871;28;45210;-60
2021/12/12 21:09:15;;;;;;;1.17;0.90;;;20.40;27.10;20.80;94794.00;;;;10274814;28;45547;-61
2021/12/12 21:14:28;;;;;;;1.20;0.80;;;20.40;27.00;20.90;94813.00;;;;10273269;28;45351;-60
2021/12/12 21:19:32;;;;;;;1.67;0.80;;;20.40;27.00;20.80;94811.00;;;;10289229;28;45203;-60
2021/12/12 21:24:41;;;;;;;0.90;0.80;;;20.40;26.90;20.80;94819.00;;;;10272675;28;45206;-60
2021/12/12 21:29:43;;;;;;;1.00;0.80;;;20.40;26.90;20.80;94796.00;;;;10273738;28;46372;-60
2021/12/12 21:34:48;;;;;;;0.77;0.77;;;20.40;26.90;20.70;94798.00;;;;10274378;28;45266;-60
2021/12/12 21:40:00;;;;;;;1.55;0.90;;;20.30;26.90;20.70;94803.00;;;;10288545;28;45163;-60
2021/12/12 21:45:13;;;;;;;1.48;0.93;;;20.30;26.80;20.70;94797.00;;;;10273873;28;45567;-60
2021/12/12 21:50:39;;;;;;;2.05;1.00;;;20.30;26.80;20.70;94806.00;;;;10272971;28;45228;-60
2021/12/12 21:55:59;;;;;;;1.08;0.80;;;20.30;26.80;20.60;94811.00;;;;10271791;28;47180;-60
2021/12/12 22:01:18;;;;;;;1.40;0.70;;;20.20;26.80;20.60;94816.00;;;;10271670;28;46788;-61
2021/12/12 22:06:27;;;;;;;1.48;0.85;;;20.20;26.80;20.60;94820.00;;;;10271785;28;45294;-61
2021/12/12 22:11:48;;;;;;;0.80;0.73;;;20.20;26.90;20.60;94819.00;;;;10287983;28;45310;-59
2021/12/12 22:16:49;;;;;;;1.00;0.77;;;20.20;26.80;20.60;94822.00;;;;10271587;28;46058;-61
2021/12/12 22:21:59;;;;;;;2.25;0.80;;;20.20;26.80;20.60;94835.00;;;;10270150;28;46955;-60
2021/12/12 22:27:02;;;;;;;1.40;0.88;;;20.10;26.70;20.60;94823.00;;;;10271203;28;46420;-60
2021/12/12 22:32:17;;;;;;;1.55;1.02;;;20.10;26.70;20.60;94833.00;;;;10271021;28;45258;-59
2021/12/12 22:37:22;;;;;;;1.33;1.00;;;20.10;26.70;20.50;94817.00;;;;10270362;28;45270;-60
2021/12/12 22:42:35;;;;;;;2.00;1.30;;;20.10;26.70;20.50;94830.00;;;;10293284;28;46088;-59
2021/12/12 22:47:39;;;;;;;2.30;1.40;;;20.10;26.70;20.50;94809.00;;;;10272519;28;46949;-60
2021/12/12 22:52:48;;;;;;;3.05;1.60;;;20.10;26.70;20.50;94811.00;;;;10277936;28;45230;-60
2021/12/12 22:57:56;;;;;;;2.40;1.70;;;20.10;26.80;20.50;94810.00;;;;10278815;28;45493;-60
2021/12/12 23:03:01;;;;;;;2.35;1.60;;;20.10;26.90;20.50;94807.00;;;;10293600;28;45292;-62
2021/12/12 23:08:26;;;;;;;2.42;1.60;;;20.10;26.80;20.50;94802.00;;;;10276845;28;46876;-62
2021/12/12 23:13:40;;;;;;;2.47;1.40;;;20.10;26.80;20.50;94809.00;;;;10293224;28;46344;-62
2021/12/12 23:18:53;;;;;;;2.20;1.58;;;20.00;26.80;20.50;94811.00;;;;10276437;28;48191;-62
2021/12/12 23:24:19;;;;;;;2.17;1.48;;;20.00;26.80;20.50;94810.00;;;;10277318;28;46602;-62
2021/12/12 23:29:23;;;;;;;1.73;1.20;;;20.00;26.90;20.40;94798.00;;;;10277769;28;46927;-60